Athensville, Illinois
Current Conditions -  °F | °C
As of 3:35 AM on Sunday 26 Oct 2014 (Local Time) from KIJX Reporting Station
Clear Clear  
Wind Chill: 48°   Ceiling: Unl
Heat Index: 50°   Visibility: 10mi
Dew Point: 39°   Wind: 5mph
Humidity: 67%   Direction: 30°NNE
Pressure: 30.02"   Gusts: NA
Location:  39.491°N, 90.2996°W
Report Text: KIJX 260835Z AUTO 03004KT 10SM CLR 10/04 A3002 RMK AO2 T00990041
Loading
Personal Weather Stations






























Interactive Weather Map
Tropical Storm Tracking
New forecast layout! Learn more

10-Day Weather Forecast

Advertisements
Track Severe Weather on mobile